createdAt,value
2024-02-29T00:01:53.029Z,85
2024-02-29T00:04:52.973Z,85
2024-02-29T00:07:52.993Z,85
2024-02-29T00:10:52.993Z,85
2024-02-29T00:13:53.005Z,85
2024-02-29T00:16:52.978Z,85
2024-02-29T00:19:52.982Z,85
2024-02-29T00:22:52.973Z,85
2024-02-29T00:25:52.978Z,85
2024-02-29T00:28:53.008Z,85
2024-02-29T00:31:52.985Z,85
2024-02-29T00:34:52.995Z,85
2024-02-29T00:37:52.986Z,85
2024-02-29T00:40:52.993Z,85
2024-02-29T00:43:52.982Z,85
2024-02-29T00:46:52.991Z,85
2024-02-29T00:49:52.992Z,85
2024-02-29T00:52:52.986Z,85
2024-02-29T00:55:52.981Z,85
2024-02-29T00:58:52.983Z,85
2024-02-29T01:01:53.019Z,85
2024-02-29T01:04:52.991Z,85
2024-02-29T01:07:52.985Z,85
2024-02-29T01:10:52.987Z,85
2024-02-29T01:13:52.987Z,85
2024-02-29T01:16:52.987Z,85
2024-02-29T01:19:52.984Z,85
2024-02-29T01:22:52.984Z,85
2024-02-29T01:25:52.988Z,85
2024-02-29T01:28:52.979Z,85
2024-02-29T01:31:53.014Z,85
2024-02-29T01:34:52.981Z,85
2024-02-29T01:37:52.987Z,85
2024-02-29T01:40:52.991Z,85
2024-02-29T01:43:53.002Z,85
2024-02-29T01:46:52.988Z,85
2024-02-29T01:52:53.007Z,85
2024-02-29T01:55:53.006Z,85
2024-02-29T01:58:52.982Z,85
2024-02-29T02:01:53.004Z,85
2024-02-29T02:04:52.992Z,85
2024-02-29T02:07:52.993Z,85
2024-02-29T02:10:53.061Z,85
2024-02-29T02:13:52.991Z,85
2024-02-29T02:16:52.993Z,85
2024-02-29T02:19:53.008Z,85
2024-02-29T02:22:52.985Z,85
2024-02-29T02:25:53.003Z,85
2024-02-29T02:28:52.997Z,86
2024-02-29T02:31:52.992Z,86
2024-02-29T02:34:52.995Z,86
2024-02-29T02:37:52.993Z,86
2024-02-29T02:40:52.992Z,86
2024-02-29T02:43:52.992Z,86
2024-02-29T02:46:52.998Z,86
2024-02-29T02:49:53.014Z,86
2024-02-29T02:52:53.013Z,86
2024-02-29T02:55:52.995Z,86
2024-02-29T02:58:52.998Z,86
2024-02-29T03:01:53.010Z,86
2024-02-29T03:04:52.999Z,86
2024-02-29T03:07:52.989Z,86
2024-02-29T03:10:53.029Z,86
2024-02-29T03:13:53.006Z,86
2024-02-29T03:16:53.011Z,86
2024-02-29T03:19:53.000Z,86
2024-02-29T03:22:53.009Z,86
2024-02-29T03:25:52.992Z,86
2024-02-29T03:28:53.002Z,86
2024-02-29T03:31:53.019Z,86
2024-02-29T03:34:53.007Z,86
2024-02-29T03:37:53.009Z,86
2024-02-29T03:40:53.109Z,86
2024-02-29T03:43:53.005Z,87
2024-02-29T03:46:53.014Z,87
2024-02-29T03:49:53.005Z,87
2024-02-29T03:52:53.002Z,87
2024-02-29T03:55:53.020Z,87
2024-02-29T03:58:53.022Z,87
2024-02-29T04:01:53.092Z,87
2024-02-29T04:04:53.005Z,87
2024-02-29T04:07:53.024Z,87
2024-02-29T04:10:53.029Z,87
2024-02-29T04:13:53.004Z,87
2024-02-29T04:16:53.011Z,87
2024-02-29T04:19:53.006Z,87
2024-02-29T04:22:53.007Z,87
2024-02-29T04:25:53.033Z,87
2024-02-29T04:28:53.008Z,87
2024-02-29T04:31:52.998Z,87
2024-02-29T04:34:53.014Z,87
2024-02-29T04:37:53.034Z,87
2024-02-29T04:40:53.015Z,87
2024-02-29T04:43:53.009Z,87
2024-02-29T04:46:53.023Z,87
2024-02-29T04:49:53.017Z,87
2024-02-29T04:52:53.016Z,87
2024-02-29T04:55:53.015Z,87
2024-02-29T04:58:53.021Z,87
2024-02-29T05:01:53.132Z,87
2024-02-29T05:04:53.013Z,88
2024-02-29T05:07:53.017Z,88
2024-02-29T05:10:53.046Z,88
2024-02-29T05:13:53.022Z,88
2024-02-29T05:16:53.010Z,88
2024-02-29T05:19:53.029Z,88
2024-02-29T05:22:53.013Z,88
2024-02-29T05:25:53.035Z,88
2024-02-29T05:31:53.102Z,88
2024-02-29T05:34:53.018Z,88
2024-02-29T05:37:53.764Z,88
2024-02-29T05:40:53.043Z,88
2024-02-29T05:43:53.019Z,88
2024-02-29T05:46:53.046Z,88
2024-02-29T05:49:53.020Z,88
2024-02-29T05:52:53.030Z,88
2024-02-29T05:55:53.046Z,88
2024-02-29T05:58:53.074Z,88
2024-02-29T06:01:53.139Z,88
2024-02-29T06:04:53.031Z,88
2024-02-29T06:07:53.044Z,88
2024-02-29T06:10:53.059Z,88
2024-02-29T06:13:53.024Z,88
2024-02-29T06:16:53.026Z,88
2024-02-29T06:19:53.037Z,88
2024-02-29T06:22:53.025Z,88
2024-02-29T06:25:53.033Z,88
2024-02-29T06:28:53.029Z,88
2024-02-29T06:31:53.038Z,88
2024-02-29T06:34:53.032Z,88
2024-02-29T06:37:53.040Z,88
2024-02-29T06:40:53.029Z,88
2024-02-29T06:43:53.022Z,88
2024-02-29T06:46:53.047Z,88
2024-02-29T06:49:53.030Z,88
2024-02-29T06:52:54.637Z,88
2024-02-29T06:55:53.057Z,88
2024-02-29T06:58:53.026Z,88
2024-02-29T07:01:53.101Z,88
2024-02-29T07:04:53.033Z,88
2024-02-29T07:07:53.032Z,88
2024-02-29T07:10:53.041Z,88
2024-02-29T07:13:53.064Z,88
2024-02-29T07:16:53.051Z,88
2024-02-29T07:19:53.053Z,88
2024-02-29T07:22:53.037Z,88
2024-02-29T07:25:53.042Z,88
2024-02-29T07:34:53.041Z,88
2024-02-29T07:37:54.804Z,88
2024-02-29T07:40:53.063Z,88
2024-02-29T07:43:53.045Z,88
2024-02-29T07:46:53.038Z,88
2024-02-29T07:49:53.092Z,88
2024-02-29T07:52:53.049Z,88
2024-02-29T07:55:53.048Z,88
2024-02-29T07:58:53.056Z,88
2024-02-29T08:01:53.157Z,88
2024-02-29T08:04:53.067Z,88
2024-02-29T08:07:53.042Z,88
2024-02-29T08:10:53.056Z,88
2024-02-29T08:13:53.042Z,88
2024-02-29T08:16:53.045Z,88
2024-02-29T08:19:53.047Z,88
2024-02-29T08:22:53.072Z,88
2024-02-29T08:25:53.090Z,88
2024-02-29T08:28:53.038Z,88
2024-02-29T08:31:53.052Z,88
2024-02-29T08:34:53.050Z,88
2024-02-29T08:37:54.562Z,88
2024-02-29T08:43:53.053Z,88
2024-02-29T08:46:53.048Z,88
2024-02-29T08:49:53.060Z,88
2024-02-29T08:52:53.072Z,88
2024-02-29T08:55:53.053Z,88
2024-02-29T09:01:53.116Z,88
2024-02-29T09:04:53.052Z,88
2024-02-29T09:07:53.054Z,88
2024-02-29T09:10:53.086Z,88
2024-02-29T09:13:53.086Z,88
2024-02-29T09:16:53.067Z,88
2024-02-29T09:19:53.057Z,88
2024-02-29T09:22:53.089Z,88
2024-02-29T09:25:53.075Z,88
2024-02-29T09:28:53.062Z,88
2024-02-29T09:31:53.057Z,88
2024-02-29T09:34:53.109Z,88
2024-02-29T09:37:53.060Z,88
2024-02-29T09:40:59.472Z,88
2024-02-29T09:43:53.081Z,88
2024-02-29T09:46:53.219Z,88
2024-02-29T09:49:56.817Z,88
2024-02-29T09:52:53.066Z,88
2024-02-29T09:55:53.069Z,87
2024-02-29T09:58:53.074Z,87
2024-02-29T10:01:53.170Z,87
2024-02-29T10:04:53.068Z,87
2024-02-29T10:07:53.066Z,87
2024-02-29T10:10:54.889Z,87
2024-02-29T10:13:53.062Z,87
2024-02-29T10:16:53.075Z,87
2024-02-29T10:19:53.081Z,87
2024-02-29T10:22:53.123Z,87
2024-02-29T10:25:53.077Z,87
2024-02-29T10:31:53.072Z,87
2024-02-29T10:34:53.065Z,87
2024-02-29T10:37:53.068Z,87
2024-02-29T10:40:53.085Z,87
2024-02-29T10:43:53.081Z,87
2024-02-29T10:46:53.082Z,87
2024-02-29T10:49:53.079Z,87
2024-02-29T10:52:53.075Z,86
2024-02-29T10:55:53.078Z,86
2024-02-29T10:58:53.068Z,86
2024-02-29T11:01:53.225Z,86
2024-02-29T11:04:53.073Z,86
2024-02-29T11:07:53.071Z,86
2024-02-29T11:10:53.090Z,86
2024-02-29T11:13:53.072Z,86
2024-02-29T11:16:53.065Z,86
2024-02-29T11:19:55.074Z,86
2024-02-29T11:22:53.263Z,85
2024-02-29T11:25:53.179Z,85
2024-02-29T11:28:53.075Z,85
2024-02-29T11:31:53.096Z,85
2024-02-29T11:34:53.117Z,85
2024-02-29T11:40:53.080Z,85
2024-02-29T11:46:53.099Z,85
2024-02-29T11:49:53.083Z,85
2024-02-29T11:52:53.075Z,84
2024-02-29T11:55:58.853Z,84
2024-02-29T11:58:53.080Z,84
2024-02-29T12:01:53.089Z,84
2024-02-29T12:04:53.079Z,84
2024-02-29T12:07:53.086Z,84
2024-02-29T12:10:53.111Z,84
2024-02-29T12:13:53.114Z,84
2024-02-29T12:16:53.100Z,84
2024-02-29T12:19:53.125Z,83
2024-02-29T12:25:53.096Z,83
2024-02-29T12:28:53.087Z,83
2024-02-29T12:34:53.087Z,83
2024-02-29T12:37:53.115Z,83
2024-02-29T12:40:53.107Z,83
2024-02-29T12:43:53.109Z,83
2024-02-29T12:46:53.110Z,82
2024-02-29T12:49:53.106Z,82
2024-02-29T12:52:53.104Z,82
2024-02-29T12:55:53.126Z,82
2024-02-29T12:58:53.099Z,82
2024-02-29T13:01:53.308Z,82
2024-02-29T13:04:53.111Z,82
2024-02-29T13:07:53.117Z,81
2024-02-29T13:10:53.113Z,81
2024-02-29T13:13:53.177Z,81
2024-02-29T13:19:53.107Z,81
2024-02-29T13:22:53.113Z,81
2024-02-29T13:25:53.339Z,81
2024-02-29T13:28:53.114Z,81
2024-02-29T13:31:53.113Z,81
2024-02-29T13:34:53.114Z,80
2024-02-29T13:37:53.130Z,80
2024-02-29T13:40:53.130Z,80
2024-02-29T13:43:53.138Z,80
2024-02-29T13:46:53.124Z,80
2024-02-29T13:49:53.217Z,80
2024-02-29T13:52:53.131Z,80
2024-02-29T13:55:53.136Z,80
2024-02-29T14:01:53.200Z,79
2024-02-29T14:04:53.139Z,79
2024-02-29T14:07:53.124Z,79
2024-02-29T14:10:53.132Z,79
2024-02-29T14:13:53.129Z,79
2024-02-29T14:16:53.138Z,79
2024-02-29T14:19:53.140Z,79
2024-02-29T14:22:53.130Z,79
2024-02-29T14:31:53.127Z,78
2024-02-29T14:34:53.130Z,78
2024-02-29T14:43:53.132Z,78
2024-02-29T14:46:53.134Z,78
2024-02-29T14:49:53.133Z,78
2024-02-29T14:52:53.145Z,78
2024-02-29T14:55:53.149Z,77
2024-02-29T14:58:53.163Z,77
2024-02-29T15:01:53.267Z,76
2024-02-29T15:04:53.131Z,76
2024-02-29T15:07:53.179Z,76
2024-02-29T15:10:53.155Z,77
2024-02-29T15:13:53.147Z,76
2024-02-29T15:16:53.136Z,76
2024-02-29T15:19:53.144Z,76
2024-02-29T15:22:53.143Z,76
2024-02-29T15:25:53.142Z,76
2024-02-29T15:31:53.136Z,76
2024-02-29T15:34:53.156Z,76
2024-02-29T15:37:53.142Z,76
2024-02-29T15:40:53.145Z,76
2024-02-29T15:43:53.142Z,76
2024-02-29T15:46:53.145Z,76
2024-02-29T15:49:53.177Z,76
2024-02-29T15:52:53.143Z,76
2024-02-29T15:55:53.172Z,76
2024-02-29T15:58:53.143Z,76
2024-02-29T16:01:53.135Z,76
2024-02-29T16:04:53.186Z,76
2024-02-29T16:07:55.743Z,76
2024-02-29T16:10:53.148Z,76
2024-02-29T16:13:53.141Z,77
2024-02-29T16:16:53.143Z,77
2024-02-29T16:19:53.170Z,77
2024-02-29T16:25:53.155Z,77
2024-02-29T16:28:53.148Z,77
2024-02-29T16:31:53.158Z,77
2024-02-29T16:34:53.212Z,77
2024-02-29T16:37:54.180Z,77
2024-02-29T16:40:53.158Z,77
2024-02-29T16:43:53.159Z,78
2024-02-29T16:46:53.156Z,78
2024-02-29T16:49:53.173Z,78
2024-02-29T16:52:53.164Z,78
2024-02-29T16:55:53.196Z,78
2024-02-29T16:58:53.155Z,78
2024-02-29T17:01:53.195Z,78
2024-02-29T17:04:53.161Z,78
2024-02-29T17:07:53.166Z,78
2024-02-29T17:10:53.173Z,78
2024-02-29T17:13:53.152Z,78
2024-02-29T17:16:53.161Z,78
2024-02-29T17:19:53.198Z,78
2024-02-29T17:22:53.152Z,78
2024-02-29T17:25:53.178Z,78
2024-02-29T17:28:53.152Z,79
2024-02-29T17:31:53.162Z,79
2024-02-29T17:34:53.160Z,79
2024-02-29T17:37:53.162Z,79
2024-02-29T17:40:53.163Z,79
2024-02-29T17:43:53.166Z,79
2024-02-29T17:46:53.160Z,79
2024-02-29T17:49:53.178Z,79
2024-02-29T17:52:53.159Z,79
2024-02-29T17:55:53.209Z,79
2024-02-29T17:58:53.160Z,79
2024-02-29T18:04:53.167Z,79
2024-02-29T18:07:55.754Z,79
2024-02-29T18:10:53.164Z,80
2024-02-29T18:13:53.160Z,80
2024-02-29T18:16:53.157Z,80
2024-02-29T18:19:53.165Z,80
2024-02-29T18:22:53.176Z,80
2024-02-29T18:25:53.394Z,80
2024-02-29T18:28:53.302Z,80
2024-02-29T18:34:53.173Z,80
2024-02-29T18:37:53.165Z,80
2024-02-29T18:40:53.183Z,80
2024-02-29T18:43:53.173Z,80
2024-02-29T18:46:53.259Z,80
2024-02-29T18:49:53.194Z,80
2024-02-29T18:55:53.191Z,81
2024-02-29T18:58:53.166Z,81
2024-02-29T19:01:53.198Z,81
2024-02-29T19:04:53.182Z,81
2024-02-29T19:07:53.169Z,81
2024-02-29T19:10:53.185Z,81
2024-02-29T19:13:53.170Z,81
2024-02-29T19:16:53.171Z,81
2024-02-29T19:19:53.257Z,81
2024-02-29T19:22:53.178Z,81
2024-02-29T19:25:53.182Z,81
2024-02-29T19:28:53.178Z,81
2024-02-29T19:31:53.178Z,81
2024-02-29T19:34:53.181Z,82
2024-02-29T19:37:53.199Z,82
2024-02-29T19:40:53.172Z,82
2024-02-29T19:43:53.169Z,82
2024-02-29T19:46:53.260Z,82
2024-02-29T19:49:53.216Z,82
2024-02-29T19:52:53.177Z,82
2024-02-29T19:55:53.177Z,82
2024-02-29T19:58:53.179Z,82
2024-02-29T20:01:53.195Z,82
2024-02-29T20:04:53.188Z,82
2024-02-29T20:07:53.175Z,82
2024-02-29T20:10:53.205Z,82
2024-02-29T20:13:53.191Z,83
2024-02-29T20:16:53.186Z,83
2024-02-29T20:19:53.210Z,83
2024-02-29T20:22:53.182Z,83
2024-02-29T20:25:53.202Z,83
2024-02-29T20:28:53.186Z,83
2024-02-29T20:31:53.191Z,83
2024-02-29T20:34:53.192Z,83
2024-02-29T20:37:53.178Z,83
2024-02-29T20:40:53.188Z,83
2024-02-29T20:43:53.182Z,83
2024-02-29T20:46:53.193Z,83
2024-02-29T20:49:53.193Z,83
2024-02-29T20:55:53.187Z,83
2024-02-29T20:58:53.185Z,83
2024-02-29T21:01:53.193Z,83
2024-02-29T21:07:53.346Z,83
2024-02-29T21:10:53.264Z,83
2024-02-29T21:13:53.182Z,83
2024-02-29T21:16:53.185Z,83
2024-02-29T21:19:53.205Z,83
2024-02-29T21:22:53.191Z,83
2024-02-29T21:25:53.190Z,83
2024-02-29T21:28:53.188Z,83
2024-02-29T21:31:53.191Z,83
2024-02-29T21:34:53.213Z,83
2024-02-29T21:37:53.195Z,83
2024-02-29T21:40:53.193Z,83
2024-02-29T21:43:53.201Z,83
2024-02-29T21:46:53.192Z,83
2024-02-29T21:49:53.209Z,83
2024-02-29T21:52:53.197Z,83
2024-02-29T21:55:53.201Z,83
2024-02-29T21:58:53.197Z,83
2024-02-29T22:01:53.254Z,83
2024-02-29T22:04:53.199Z,83
2024-02-29T22:07:53.243Z,83
2024-02-29T22:10:53.209Z,83
2024-02-29T22:13:53.197Z,83
2024-02-29T22:16:53.230Z,83
2024-02-29T22:19:53.211Z,83
2024-02-29T22:25:53.317Z,83
2024-02-29T22:28:53.227Z,83
2024-02-29T22:31:53.208Z,84
2024-02-29T22:34:53.215Z,84
2024-02-29T22:37:53.196Z,84
2024-02-29T22:40:53.212Z,84
2024-02-29T22:43:53.199Z,84
2024-02-29T22:46:53.212Z,84
2024-02-29T22:49:53.200Z,84
2024-02-29T22:52:53.208Z,84
2024-02-29T22:55:53.203Z,84
2024-02-29T22:58:53.205Z,84
2024-02-29T23:01:53.288Z,84
2024-02-29T23:04:53.202Z,84
2024-02-29T23:07:53.215Z,84
2024-02-29T23:10:53.224Z,84
2024-02-29T23:13:53.205Z,84
2024-02-29T23:16:53.211Z,84
2024-02-29T23:19:56.141Z,84
2024-02-29T23:22:53.207Z,84
2024-02-29T23:25:53.222Z,84
2024-02-29T23:28:53.211Z,84
2024-02-29T23:31:53.382Z,84
2024-02-29T23:34:53.201Z,85
2024-02-29T23:37:53.206Z,85
2024-02-29T23:43:53.201Z,85
2024-02-29T23:46:53.212Z,85
2024-02-29T23:49:53.208Z,85
2024-02-29T23:52:53.216Z,85
2024-02-29T23:58:53.203Z,85
